createdAt,value
2018-04-13T00:00:36.758Z,0
2018-04-13T00:01:37.288Z,0
2018-04-13T00:02:36.991Z,0
2018-04-13T00:03:37.253Z,0
2018-04-13T00:04:36.963Z,0
2018-04-13T00:05:37.218Z,0
2018-04-13T00:06:36.933Z,0
2018-04-13T00:07:37.182Z,0
2018-04-13T00:08:37.172Z,0
2018-04-13T00:09:37.161Z,0
2018-04-13T00:10:36.881Z,0
2018-04-13T00:11:36.605Z,0
2018-04-13T00:12:36.843Z,0
2018-04-13T00:13:37.361Z,0
2018-04-13T00:14:36.822Z,0
2018-04-13T00:15:37.401Z,0
2018-04-13T00:16:37.052Z,0
2018-04-13T00:17:36.501Z,0
2018-04-13T00:18:37.034Z,0
2018-04-13T00:19:37.014Z,0
2018-04-13T00:20:36.744Z,0
2018-04-13T00:21:36.729Z,0
2018-04-13T00:22:36.708Z,0
2018-04-13T00:23:36.949Z,0
2018-04-13T00:24:36.945Z,0
2018-04-13T00:25:36.918Z,0
2018-04-13T00:26:36.646Z,0
2018-04-13T00:27:37.103Z,0
2018-04-13T00:28:37.155Z,0
2018-04-13T00:29:36.869Z,0
2018-04-13T00:30:36.587Z,0
2018-04-13T00:31:36.565Z,0
2018-04-13T00:32:36.820Z,0
2018-04-13T00:33:36.273Z,0
2018-04-13T00:34:37.059Z,0
2018-04-13T00:35:36.516Z,0
2018-04-13T00:36:37.038Z,0
2018-04-13T00:37:36.744Z,0
2018-04-13T00:38:36.729Z,0
2018-04-13T00:39:36.179Z,0
2018-04-13T00:40:36.443Z,0
2018-04-13T00:41:36.154Z,0
2018-04-13T00:42:36.677Z,0
2018-04-13T00:43:36.916Z,0
2018-04-13T00:44:36.110Z,0
2018-04-13T00:45:36.103Z,0
2018-04-13T00:46:36.354Z,0
2018-04-13T00:47:36.068Z,0
2018-04-13T00:48:36.314Z,0
2018-04-13T00:49:36.564Z,0
2018-04-13T00:50:36.548Z,0
2018-04-13T00:51:36.548Z,0
2018-04-13T00:52:36.511Z,0
2018-04-13T00:53:35.980Z,0
2018-04-13T00:54:36.237Z,0
2018-04-13T00:55:36.482Z,0
2018-04-13T00:56:36.464Z,0
2018-04-13T00:57:35.645Z,0
2018-04-13T00:58:36.168Z,0
2018-04-13T00:59:36.411Z,0
2018-04-13T01:00:36.141Z,0
2018-04-13T01:01:36.654Z,0
2018-04-13T01:02:36.101Z,0
2018-04-13T01:03:36.359Z,0
2018-04-13T01:04:36.330Z,0
2018-04-13T01:05:36.315Z,0
2018-04-13T01:06:36.037Z,0
2018-04-13T01:07:36.572Z,0
2018-04-13T01:08:36.538Z,0
2018-04-13T01:09:36.272Z,0
2018-04-13T01:10:35.714Z,0
2018-04-13T01:11:35.965Z,0
2018-04-13T01:12:36.214Z,0
2018-04-13T01:13:36.233Z,0
2018-04-13T01:14:35.391Z,0
2018-04-13T01:15:36.449Z,0
2018-04-13T01:16:35.889Z,0
2018-04-13T01:17:35.874Z,0
2018-04-13T01:18:35.596Z,0
2018-04-13T01:19:36.115Z,0
2018-04-13T01:20:35.566Z,0
2018-04-13T01:21:36.074Z,0
2018-04-13T01:22:35.798Z,0
2018-04-13T01:23:35.781Z,0
2018-04-13T01:24:35.511Z,0
2018-04-13T01:25:35.231Z,0
2018-04-13T01:26:35.468Z,0
2018-04-13T01:27:35.983Z,0
2018-04-13T01:28:35.711Z,0
2018-04-13T01:29:36.166Z,0
2018-04-13T01:30:35.684Z,0
2018-04-13T01:31:36.201Z,0
2018-04-13T01:32:35.660Z,0
2018-04-13T01:33:35.374Z,0
2018-04-13T01:34:35.947Z,0
2018-04-13T01:35:35.341Z,0
2018-04-13T01:36:35.585Z,0
2018-04-13T01:37:35.826Z,0
2018-04-13T01:38:35.019Z,0
2018-04-13T01:39:36.082Z,0
2018-04-13T01:40:35.786Z,0
2018-04-13T01:41:35.511Z,0
2018-04-13T01:42:35.760Z,0
2018-04-13T01:43:35.752Z,0
2018-04-13T01:44:34.939Z,0
2018-04-13T01:45:35.190Z,0
2018-04-13T01:46:35.429Z,0
2018-04-13T01:47:35.418Z,0
2018-04-13T01:48:35.663Z,0
2018-04-13T01:49:34.862Z,0
2018-04-13T01:50:35.103Z,0
2018-04-13T01:51:35.354Z,0
2018-04-13T01:52:35.346Z,0
2018-04-13T01:53:35.610Z,0
2018-04-13T01:54:35.046Z,0
2018-04-13T01:55:35.307Z,0
2018-04-13T01:56:35.292Z,0
2018-04-13T01:57:35.267Z,0
2018-04-13T01:58:35.246Z,0
2018-04-13T01:59:35.498Z,0
2018-04-13T02:00:34.956Z,0
2018-04-13T02:01:35.208Z,0
2018-04-13T02:02:35.463Z,0
2018-04-13T02:03:35.171Z,0
2018-04-13T02:04:34.889Z,0
2018-04-13T02:05:35.140Z,0
2018-04-13T02:06:35.393Z,0
2018-04-13T02:07:35.111Z,0
2018-04-13T02:08:34.839Z,0
2018-04-13T02:09:35.085Z,0
2018-04-13T02:10:35.070Z,0
2018-04-13T02:11:35.316Z,0
2018-04-13T02:12:35.300Z,0
2018-04-13T02:13:35.028Z,0
2018-04-13T02:14:35.280Z,0
2018-04-13T02:15:35.518Z,0
2018-04-13T02:16:35.235Z,0
2018-04-13T02:17:34.967Z,0
2018-04-13T02:18:35.214Z,0
2018-04-13T02:19:34.933Z,0
2018-04-13T02:20:34.914Z,0
2018-04-13T02:21:35.163Z,0
2018-04-13T02:22:34.894Z,0
2018-04-13T02:23:34.992Z,0
2018-04-13T02:24:34.864Z,0
2018-04-13T02:25:34.894Z,0
2018-04-13T02:26:34.564Z,0
2018-04-13T02:27:35.081Z,0
2018-04-13T02:28:35.388Z,0
2018-04-13T02:29:35.301Z,0
2018-04-13T02:30:34.504Z,0
2018-04-13T02:31:35.043Z,0
2018-04-13T02:32:34.724Z,0
2018-04-13T02:33:34.191Z,0
2018-04-13T02:34:34.247Z,0
2018-04-13T02:35:34.950Z,0
2018-04-13T02:36:34.949Z,0
2018-04-13T02:37:34.920Z,0
2018-04-13T02:38:35.176Z,0
2018-04-13T02:39:34.662Z,0
2018-04-13T02:40:34.612Z,0
2018-04-13T02:41:34.859Z,0
2018-04-13T02:42:34.591Z,0
2018-04-13T02:43:34.581Z,0
2018-04-13T02:44:35.128Z,0
2018-04-13T02:45:34.543Z,0
2018-04-13T02:46:35.067Z,0
2018-04-13T02:47:34.556Z,0
2018-04-13T02:48:34.238Z,0
2018-04-13T02:49:34.555Z,0
2018-04-13T02:50:34.203Z,0
2018-04-13T02:51:34.175Z,0
2018-04-13T02:52:34.160Z,0
2018-04-13T02:53:34.676Z,0
2018-04-13T02:54:34.717Z,0
2018-04-13T02:55:34.381Z,0
2018-04-13T02:56:34.883Z,0
2018-04-13T02:57:34.909Z,0
2018-04-13T02:58:34.605Z,0
2018-04-13T02:59:34.872Z,0
2018-04-13T03:00:34.578Z,0
2018-04-13T03:01:34.869Z,0
2018-04-13T03:02:34.527Z,0
2018-04-13T03:03:33.715Z,0
2018-04-13T03:04:33.981Z,0
2018-04-13T03:05:34.748Z,0
2018-04-13T03:06:34.501Z,0
2018-04-13T03:07:34.173Z,0
2018-04-13T03:08:34.436Z,0
2018-04-13T03:09:34.170Z,0
2018-04-13T03:10:34.149Z,0
2018-04-13T03:11:33.859Z,0
2018-04-13T03:12:34.107Z,0
2018-04-13T03:13:34.373Z,0
2018-04-13T03:14:34.358Z,0
2018-04-13T03:15:34.053Z,0
2018-04-13T03:16:34.314Z,0
2018-04-13T03:17:34.287Z,0
2018-04-13T03:18:34.007Z,0
2018-04-13T03:19:33.461Z,0
2018-04-13T03:20:33.454Z,0
2018-04-13T03:21:34.224Z,0
2018-04-13T03:22:33.677Z,0
2018-04-13T03:23:33.665Z,0
2018-04-13T03:24:34.455Z,0
2018-04-13T03:25:34.435Z,0
2018-04-13T03:26:34.421Z,0
2018-04-13T03:27:34.394Z,0
2018-04-13T03:28:34.120Z,0
2018-04-13T03:29:34.108Z,0
2018-04-13T03:30:33.558Z,0
2018-04-13T03:31:33.819Z,0
2018-04-13T03:32:33.793Z,0
2018-04-13T03:33:34.290Z,0
2018-04-13T03:34:33.492Z,0
2018-04-13T03:35:33.738Z,0
2018-04-13T03:36:33.984Z,0
2018-04-13T03:37:33.698Z,0
2018-04-13T03:38:33.692Z,0
2018-04-13T03:39:33.672Z,0
2018-04-13T03:40:33.914Z,0
2018-04-13T03:41:33.374Z,0
2018-04-13T03:42:33.626Z,0
2018-04-13T03:43:33.606Z,0
2018-04-13T03:44:33.327Z,0
2018-04-13T03:45:33.597Z,0
2018-04-13T03:46:33.826Z,0
2018-04-13T03:47:33.545Z,0
2018-04-13T03:48:33.272Z,0
2018-04-13T03:49:33.508Z,0
2018-04-13T03:50:33.783Z,0
2018-04-13T03:51:33.742Z,0
2018-04-13T03:52:33.201Z,0
2018-04-13T03:53:33.710Z,0
2018-04-13T03:54:33.839Z,0
2018-04-13T03:55:33.415Z,0
2018-04-13T03:56:33.664Z,0
2018-04-13T03:57:33.392Z,0
2018-04-13T03:58:33.637Z,0
2018-04-13T03:59:33.353Z,0
2018-04-13T04:00:33.075Z,0
2018-04-13T04:01:33.049Z,0
2018-04-13T04:02:33.045Z,0
2018-04-13T04:03:33.816Z,0
2018-04-13T04:04:33.004Z,0
2018-04-13T04:05:33.247Z,0
2018-04-13T04:06:32.711Z,0
2018-04-13T04:07:33.486Z,0
2018-04-13T04:08:32.945Z,0
2018-04-13T04:09:33.196Z,0
2018-04-13T04:10:32.905Z,0
2018-04-13T04:11:33.171Z,0
2018-04-13T04:12:33.409Z,0
2018-04-13T04:13:32.865Z,0
2018-04-13T04:14:32.848Z,0
2018-04-13T04:15:33.095Z,0
2018-04-13T04:16:33.196Z,0
2018-04-13T04:17:32.790Z,0
2018-04-13T04:18:33.567Z,0
2018-04-13T04:19:32.760Z,0
2018-04-13T04:20:32.750Z,0
2018-04-13T04:21:32.990Z,0
2018-04-13T04:22:32.979Z,0
2018-04-13T04:23:32.957Z,0
2018-04-13T04:24:32.949Z,0
2018-04-13T04:25:33.186Z,0
2018-04-13T04:26:32.916Z,0
2018-04-13T04:27:32.833Z,0
2018-04-13T04:28:32.875Z,0
2018-04-13T04:29:32.860Z,0
2018-04-13T04:30:33.378Z,0
2018-04-13T04:31:33.110Z,0
2018-04-13T04:32:33.084Z,0
2018-04-13T04:33:32.803Z,0
2018-04-13T04:34:33.145Z,0
2018-04-13T04:35:32.504Z,0
2018-04-13T04:36:32.743Z,0
2018-04-13T04:37:32.729Z,0
2018-04-13T04:38:32.981Z,0
2018-04-13T04:39:32.778Z,0
2018-04-13T04:40:32.690Z,0
2018-04-13T04:41:32.397Z,0
2018-04-13T04:42:32.665Z,5
2018-04-13T04:43:32.637Z,5
2018-04-13T04:44:32.360Z,5
2018-04-13T04:45:32.863Z,5
2018-04-13T04:46:33.116Z,5
2018-04-13T04:47:33.105Z,5
2018-04-13T04:48:32.019Z,5
2018-04-13T04:49:32.805Z,5
2018-04-13T04:50:32.788Z,10
2018-04-13T04:51:32.232Z,10
2018-04-13T04:52:32.762Z,10
2018-04-13T04:53:32.469Z,10
2018-04-13T04:54:32.189Z,10
2018-04-13T04:55:32.701Z,15
2018-04-13T04:56:32.946Z,15
2018-04-13T04:57:32.728Z,15
2018-04-13T04:58:32.664Z,20
2018-04-13T04:59:31.844Z,20
2018-04-13T05:00:32.355Z,20
2018-04-13T05:01:32.595Z,25
2018-04-13T05:02:32.059Z,25
2018-04-13T05:03:32.037Z,30
2018-04-13T05:04:32.329Z,30
2018-04-13T05:05:32.541Z,30
2018-04-13T05:06:32.272Z,35
2018-04-13T05:07:32.243Z,35
2018-04-13T05:08:32.495Z,35
2018-04-13T05:09:32.213Z,35
2018-04-13T05:10:32.198Z,40
2018-04-13T05:11:32.188Z,40
2018-04-13T05:12:31.895Z,40
2018-04-13T05:13:32.144Z,40
2018-04-13T05:14:32.129Z,40
2018-04-13T05:15:32.108Z,40
2018-04-13T05:16:32.097Z,40
2018-04-13T05:17:32.389Z,50
2018-04-13T05:18:32.322Z,45
2018-04-13T05:19:31.514Z,45
2018-04-13T05:20:32.031Z,50
2018-04-13T05:21:32.012Z,50
2018-04-13T05:22:31.745Z,55
2018-04-13T05:23:32.254Z,55
2018-04-13T05:24:31.701Z,55
2018-04-13T05:25:31.949Z,60
2018-04-13T05:26:32.197Z,60
2018-04-13T05:27:31.659Z,60
2018-04-13T05:28:32.165Z,60
2018-04-13T05:29:31.883Z,60
2018-04-13T05:30:31.873Z,60
2018-04-13T05:31:31.858Z,60
2018-04-13T05:32:31.569Z,60
2018-04-13T05:33:32.348Z,60
2018-04-13T05:34:31.846Z,60
2018-04-13T05:35:31.259Z,60
2018-04-13T05:36:31.770Z,65
2018-04-13T05:37:32.026Z,65
2018-04-13T05:38:31.748Z,65
2018-04-13T05:39:31.730Z,65
2018-04-13T05:40:31.973Z,65
2018-04-13T05:41:32.227Z,65
2018-04-13T05:42:31.942Z,70
2018-04-13T05:43:31.656Z,70
2018-04-13T05:44:31.377Z,70
2018-04-13T05:45:32.164Z,70
2018-04-13T05:46:31.612Z,70
2018-04-13T05:47:32.123Z,70
2018-04-13T05:48:31.319Z,70
2018-04-13T05:49:31.844Z,70
2018-04-13T05:50:31.825Z,70
2018-04-13T05:51:31.275Z,70
2018-04-13T05:52:31.519Z,75
2018-04-13T05:53:31.499Z,75
2018-04-13T05:54:30.954Z,75
2018-04-13T05:55:31.746Z,80
2018-04-13T05:56:31.458Z,80
2018-04-13T05:57:31.442Z,80
2018-04-13T05:58:31.957Z,85
2018-04-13T05:59:31.413Z,85
2018-04-13T06:00:31.393Z,85
2018-04-13T06:01:31.384Z,85
2018-04-13T06:02:31.901Z,85
2018-04-13T06:03:31.345Z,85
2018-04-13T06:04:31.343Z,85
2018-04-13T06:05:31.584Z,85
2018-04-13T06:06:31.568Z,90
2018-04-13T06:07:31.551Z,90
2018-04-13T06:08:31.533Z,90
2018-04-13T06:09:31.261Z,90
2018-04-13T06:10:31.511Z,90
2018-04-13T06:11:31.224Z,90
2018-04-13T06:12:31.215Z,90
2018-04-13T06:13:30.956Z,90
2018-04-13T06:14:31.185Z,90
2018-04-13T06:15:31.434Z,90
2018-04-13T06:16:31.697Z,90
2018-04-13T06:17:30.873Z,95
2018-04-13T06:18:30.858Z,100
2018-04-13T06:19:31.157Z,105
2018-04-13T06:20:31.355Z,110
2018-04-13T06:21:31.093Z,115
2018-04-13T06:22:31.062Z,125
2018-04-13T06:23:31.051Z,125
2018-04-13T06:24:31.657Z,130
2018-04-13T06:25:30.760Z,140
2018-04-13T06:26:31.000Z,140
2018-04-13T06:27:31.400Z,140
2018-04-13T06:28:30.751Z,140
2018-04-13T06:29:31.258Z,145
2018-04-13T06:30:31.215Z,145
2018-04-13T06:31:30.937Z,145
2018-04-13T06:32:30.648Z,140
2018-04-13T06:33:31.170Z,140
2018-04-13T06:34:31.158Z,135
2018-04-13T06:35:31.143Z,125
2018-04-13T06:36:31.128Z,120
2018-04-13T06:37:30.845Z,115
2018-04-13T06:38:30.572Z,110
2018-04-13T06:39:30.819Z,105
2018-04-13T06:40:30.796Z,100
2018-04-13T06:41:30.794Z,100
2018-04-13T06:42:30.509Z,105
2018-04-13T06:43:30.761Z,115
2018-04-13T06:44:31.275Z,125
2018-04-13T06:45:30.741Z,130
2018-04-13T06:46:30.985Z,135
2018-04-13T06:47:30.705Z,130
2018-04-13T06:48:30.426Z,125
2018-04-13T06:49:30.411Z,125
2018-04-13T06:50:30.408Z,120
2018-04-13T06:51:30.927Z,115
2018-04-13T06:52:30.902Z,110
2018-04-13T06:53:30.887Z,110
2018-04-13T06:54:30.342Z,110
2018-04-13T06:55:30.597Z,105
2018-04-13T06:56:30.876Z,105
2018-04-13T06:57:30.594Z,105
2018-04-13T06:58:30.573Z,105
2018-04-13T06:59:30.280Z,105
2018-04-13T07:00:30.537Z,105
2018-04-13T07:01:29.983Z,110
2018-04-13T07:02:30.863Z,120
2018-04-13T07:03:30.244Z,125
2018-04-13T07:04:29.942Z,130
2018-04-13T07:05:29.930Z,135
2018-04-13T07:06:30.445Z,145
2018-04-13T07:07:30.957Z,155
2018-04-13T07:08:30.497Z,150
2018-04-13T07:09:30.674Z,150
2018-04-13T07:10:30.660Z,145
2018-04-13T07:11:30.116Z,140
2018-04-13T07:12:30.918Z,140
2018-04-13T07:13:30.630Z,135
2018-04-13T07:14:30.074Z,135
2018-04-13T07:15:30.331Z,135
2018-04-13T07:16:30.319Z,135
2018-04-13T07:17:30.302Z,135
2018-04-13T07:18:30.288Z,135
2018-04-13T07:19:30.084Z,140
2018-04-13T07:20:29.989Z,145
2018-04-13T07:21:29.979Z,150
2018-04-13T07:22:30.509Z,155
2018-04-13T07:23:30.751Z,160
2018-04-13T07:24:29.682Z,165
2018-04-13T07:25:29.932Z,175
2018-04-13T07:26:30.185Z,180
2018-04-13T07:27:30.432Z,190
2018-04-13T07:28:30.173Z,195
2018-04-13T07:29:30.815Z,195
2018-04-13T07:30:30.390Z,200
2018-04-13T07:31:30.734Z,205
2018-04-13T07:32:29.831Z,205
2018-04-13T07:33:30.351Z,205
2018-04-13T07:34:30.100Z,205
2018-04-13T07:35:30.327Z,205
2018-04-13T07:36:29.796Z,205
2018-04-13T07:37:30.041Z,200
2018-04-13T07:38:30.699Z,200
2018-04-13T07:39:30.398Z,195
2018-04-13T07:40:30.534Z,195
2018-04-13T07:41:29.997Z,195
2018-04-13T07:42:29.970Z,195
2018-04-13T07:43:30.551Z,195
2018-04-13T07:44:29.958Z,195
2018-04-13T07:45:29.943Z,195
2018-04-13T07:46:29.930Z,195
2018-04-13T07:47:29.915Z,195
2018-04-13T07:48:29.933Z,200
2018-04-13T07:49:30.153Z,200
2018-04-13T07:50:29.609Z,200
2018-04-13T07:51:30.142Z,205
2018-04-13T07:52:30.264Z,210
2018-04-13T07:53:29.835Z,210
2018-04-13T07:54:30.101Z,215
2018-04-13T07:55:29.552Z,220
2018-04-13T07:56:29.555Z,220
2018-04-13T07:57:29.536Z,225
2018-04-13T07:58:30.401Z,230
2018-04-13T07:59:30.490Z,230
2018-04-13T08:00:30.927Z,235
2018-04-13T08:01:29.482Z,235
2018-04-13T08:02:29.830Z,240
2018-04-13T08:03:30.525Z,240
2018-04-13T08:04:29.756Z,240
2018-04-13T08:05:29.438Z,240
2018-04-13T08:06:29.705Z,240
2018-04-13T08:07:29.679Z,235
2018-04-13T08:08:29.673Z,230
2018-04-13T08:09:29.722Z,220
2018-04-13T08:10:29.650Z,210
2018-04-13T08:11:29.629Z,200
2018-04-13T08:12:30.285Z,190
2018-04-13T08:13:29.350Z,185
2018-04-13T08:14:29.064Z,180
2018-04-13T08:15:29.592Z,170
2018-04-13T08:16:29.845Z,165
2018-04-13T08:17:29.836Z,165
2018-04-13T08:18:29.288Z,165
2018-04-13T08:19:29.269Z,170
2018-04-13T08:20:29.536Z,175
2018-04-13T08:21:29.517Z,180
2018-04-13T08:22:29.508Z,180
2018-04-13T08:23:29.930Z,185
2018-04-13T08:24:29.492Z,180
2018-04-13T08:25:29.471Z,180
2018-04-13T08:26:29.189Z,185
2018-04-13T08:27:28.917Z,190
2018-04-13T08:28:30.169Z,195
2018-04-13T08:29:29.434Z,200
2018-04-13T08:30:29.409Z,210
2018-04-13T08:31:29.132Z,215
2018-04-13T08:32:29.934Z,220
2018-04-13T08:33:29.196Z,225
2018-04-13T08:34:29.363Z,230
2018-04-13T08:35:29.601Z,240
2018-04-13T08:36:29.363Z,250
2018-04-13T08:37:29.947Z,250
2018-04-13T08:38:29.147Z,250
2018-04-13T08:39:29.322Z,245
2018-04-13T08:40:28.764Z,245
2018-04-13T08:41:29.286Z,245
2018-04-13T08:42:29.559Z,245
2018-04-13T08:43:29.210Z,240
2018-04-13T08:44:28.721Z,240
2018-04-13T08:45:29.591Z,245
2018-04-13T08:46:29.495Z,250
2018-04-13T08:47:29.220Z,260
2018-04-13T08:48:28.943Z,265
2018-04-13T08:49:28.666Z,275
2018-04-13T08:50:29.753Z,280
2018-04-13T08:51:29.174Z,290
2018-04-13T08:52:29.224Z,300
2018-04-13T08:53:28.648Z,310
2018-04-13T08:54:28.873Z,320
2018-04-13T08:55:29.134Z,330
2018-04-13T08:56:29.447Z,340
2018-04-13T08:57:28.850Z,345
2018-04-13T08:58:29.365Z,370
2018-04-13T08:59:29.092Z,405
2018-04-13T09:00:29.347Z,420
2018-04-13T09:01:29.069Z,405
2018-04-13T09:02:29.584Z,415
2018-04-13T09:03:29.040Z,405
2018-04-13T09:04:28.780Z,385
2018-04-13T09:05:29.019Z,340
2018-04-13T09:06:29.156Z,320
2018-04-13T09:07:28.551Z,305
2018-04-13T09:08:28.757Z,280
2018-04-13T09:09:29.257Z,270
2018-04-13T09:10:28.985Z,255
2018-04-13T09:11:29.254Z,245
2018-04-13T09:12:28.956Z,240
2018-04-13T09:13:29.209Z,240
2018-04-13T09:14:29.237Z,240
2018-04-13T09:15:28.920Z,240
2018-04-13T09:16:28.920Z,235
2018-04-13T09:17:28.907Z,230
2018-04-13T09:18:29.430Z,230
2018-04-13T09:19:28.653Z,225
2018-04-13T09:20:28.870Z,225
2018-04-13T09:21:29.130Z,225
2018-04-13T09:22:29.121Z,215
2018-04-13T09:23:29.122Z,210
2018-04-13T09:24:29.109Z,210
2018-04-13T09:25:28.828Z,200
2018-04-13T09:26:28.827Z,195
2018-04-13T09:27:28.538Z,190
2018-04-13T09:28:28.800Z,190
2018-04-13T09:29:28.794Z,190
2018-04-13T09:30:29.036Z,190
2018-04-13T09:31:28.559Z,190
2018-04-13T09:32:29.023Z,190
2018-04-13T09:33:28.747Z,190
2018-04-13T09:34:28.998Z,195
2018-04-13T09:35:28.464Z,195
2018-04-13T09:36:28.991Z,200
2018-04-13T09:37:29.101Z,205
2018-04-13T09:38:29.220Z,210
2018-04-13T09:39:29.247Z,215
2018-04-13T09:40:28.938Z,220
2018-04-13T09:41:28.669Z,220
2018-04-13T09:42:28.388Z,220
2018-04-13T09:43:28.641Z,220
2018-04-13T09:44:29.300Z,215
2018-04-13T09:45:28.622Z,210
2018-04-13T09:46:28.344Z,210
2018-04-13T09:47:28.868Z,200
2018-04-13T09:48:28.584Z,195
2018-04-13T09:49:28.843Z,190
2018-04-13T09:50:28.587Z,190
2018-04-13T09:51:28.288Z,185
2018-04-13T09:52:28.279Z,185
2018-04-13T09:53:28.556Z,190
2018-04-13T09:54:28.535Z,195
2018-04-13T09:55:28.529Z,200
2018-04-13T09:56:28.521Z,215
2018-04-13T09:57:28.499Z,215
2018-04-13T09:58:28.504Z,220
2018-04-13T09:59:28.478Z,220
2018-04-13T10:00:28.474Z,215
2018-04-13T10:01:28.726Z,205
2018-04-13T10:02:28.194Z,195
2018-04-13T10:03:28.970Z,190
2018-04-13T10:04:28.430Z,185
2018-04-13T10:05:28.422Z,185
2018-04-13T10:06:28.934Z,185
2018-04-13T10:07:28.439Z,185
2018-04-13T10:08:28.388Z,185
2018-04-13T10:09:28.641Z,185
2018-04-13T10:10:28.370Z,185
2018-04-13T10:11:28.352Z,185
2018-04-13T10:12:28.079Z,190
2018-04-13T10:13:28.064Z,190
2018-04-13T10:14:28.325Z,195
2018-04-13T10:15:28.314Z,200
2018-04-13T10:16:28.048Z,205
2018-04-13T10:17:28.505Z,205
2018-04-13T10:18:28.293Z,205
2018-04-13T10:19:28.017Z,205
2018-04-13T10:20:28.530Z,200
2018-04-13T10:21:28.256Z,195
2018-04-13T10:22:28.241Z,195
2018-04-13T10:23:28.241Z,195
2018-04-13T10:24:28.221Z,195
2018-04-13T10:25:28.480Z,195
2018-04-13T10:26:27.939Z,190
2018-04-13T10:27:27.929Z,190
2018-04-13T10:28:28.117Z,185
2018-04-13T10:29:28.177Z,180
2018-04-13T10:30:28.419Z,175
2018-04-13T10:31:28.689Z,175
2018-04-13T10:32:28.695Z,175
2018-04-13T10:33:28.133Z,175
2018-04-13T10:34:28.394Z,175
2018-04-13T10:35:28.124Z,175
2018-04-13T10:36:28.096Z,180
2018-04-13T10:37:28.087Z,180
2018-04-13T10:38:28.598Z,185
2018-04-13T10:39:27.849Z,190
2018-04-13T10:40:28.068Z,200
2018-04-13T10:41:28.056Z,205
2018-04-13T10:42:28.044Z,225
2018-04-13T10:43:28.026Z,235
2018-04-13T10:44:28.294Z,245
2018-04-13T10:45:28.017Z,250
2018-04-13T10:46:28.000Z,250
2018-04-13T10:47:28.516Z,250
2018-04-13T10:48:28.244Z,255
2018-04-13T10:49:28.115Z,260
2018-04-13T10:50:27.960Z,245
2018-04-13T10:51:28.215Z,275
2018-04-13T10:52:27.950Z,290
2018-04-13T10:53:28.466Z,290
2018-04-13T10:54:27.923Z,285
2018-04-13T10:55:28.440Z,270
2018-04-13T10:56:27.898Z,260
2018-04-13T10:57:28.154Z,240
2018-04-13T10:58:28.408Z,225
2018-04-13T10:59:28.409Z,220
2018-04-13T11:00:27.603Z,215
2018-04-13T11:01:27.854Z,215
2018-04-13T11:02:28.123Z,220
2018-04-13T11:03:27.573Z,220
2018-04-13T11:04:27.551Z,220
2018-04-13T11:05:27.280Z,215
2018-04-13T11:06:27.858Z,210
2018-04-13T11:07:27.792Z,210
2018-04-13T11:08:27.521Z,205
2018-04-13T11:09:27.776Z,200
2018-04-13T11:10:27.803Z,200
2018-04-13T11:11:28.020Z,190
2018-04-13T11:12:28.012Z,190
2018-04-13T11:13:27.999Z,185
2018-04-13T11:14:27.725Z,175
2018-04-13T11:15:27.717Z,165
2018-04-13T11:16:27.709Z,160
2018-04-13T11:17:27.702Z,150
2018-04-13T11:18:27.950Z,145
2018-04-13T11:19:27.695Z,145
2018-04-13T11:20:27.418Z,140
2018-04-13T11:21:27.659Z,135
2018-04-13T11:22:27.688Z,135
2018-04-13T11:23:27.367Z,130
2018-04-13T11:24:27.617Z,130
2018-04-13T11:25:27.345Z,130
2018-04-13T11:26:27.609Z,125
2018-04-13T11:27:27.855Z,125
2018-04-13T11:28:27.863Z,125
2018-04-13T11:29:27.845Z,120
2018-04-13T11:30:27.842Z,115
2018-04-13T11:31:27.559Z,115
2018-04-13T11:32:27.817Z,110
2018-04-13T11:33:27.798Z,110
2018-04-13T11:34:28.069Z,110
2018-04-13T11:35:27.776Z,110
2018-04-13T11:36:27.506Z,115
2018-04-13T11:37:27.756Z,120
2018-04-13T11:38:27.480Z,125
2018-04-13T11:39:28.015Z,130
2018-04-13T11:40:27.203Z,135
2018-04-13T11:41:27.461Z,145
2018-04-13T11:42:27.171Z,155
2018-04-13T11:43:27.440Z,160
2018-04-13T11:44:27.427Z,165
2018-04-13T11:45:27.938Z,170
2018-04-13T11:46:27.141Z,175
2018-04-13T11:47:27.662Z,180
2018-04-13T11:48:27.112Z,185
2018-04-13T11:49:27.378Z,185
2018-04-13T11:50:27.615Z,185
2018-04-13T11:51:27.404Z,185
2018-04-13T11:52:27.059Z,180
2018-04-13T11:53:27.587Z,175
2018-04-13T11:54:27.574Z,170
2018-04-13T11:55:27.563Z,165
2018-04-13T11:56:27.813Z,160
2018-04-13T11:57:27.541Z,160
2018-04-13T11:58:27.532Z,155
2018-04-13T11:59:27.532Z,150
2018-04-13T12:00:26.993Z,150
2018-04-13T12:01:27.254Z,145
2018-04-13T12:02:27.241Z,145
2018-04-13T12:03:27.490Z,145
2018-04-13T12:04:27.196Z,140
2018-04-13T12:05:27.184Z,140
2018-04-13T12:06:27.442Z,135
2018-04-13T12:07:27.456Z,135
2018-04-13T12:08:27.414Z,130
2018-04-13T12:09:27.417Z,130
2018-04-13T12:10:27.135Z,125
2018-04-13T12:11:27.648Z,125
2018-04-13T12:12:26.855Z,120
2018-04-13T12:13:27.373Z,120
2018-04-13T12:14:27.088Z,115
2018-04-13T12:15:26.812Z,110
2018-04-13T12:16:27.072Z,105
2018-04-13T12:17:27.318Z,100
2018-04-13T12:18:27.306Z,95
2018-04-13T12:19:26.766Z,95
2018-04-13T12:20:27.630Z,90
2018-04-13T12:21:27.286Z,85
2018-04-13T12:22:27.284Z,85
2018-04-13T12:23:27.314Z,80
2018-04-13T12:24:27.243Z,80
2018-04-13T12:25:27.226Z,75
2018-04-13T12:26:27.481Z,75
2018-04-13T12:27:26.957Z,75
2018-04-13T12:28:27.136Z,75
2018-04-13T12:29:27.192Z,75
2018-04-13T12:30:26.903Z,75
2018-04-13T12:31:27.260Z,75
2018-04-13T12:32:27.168Z,70
2018-04-13T12:33:26.629Z,70
2018-04-13T12:34:27.466Z,70
2018-04-13T12:35:26.594Z,70
2018-04-13T12:36:26.853Z,75
2018-04-13T12:37:27.097Z,75
2018-04-13T12:38:27.272Z,75
2018-04-13T12:39:26.803Z,75
2018-04-13T12:40:27.334Z,80
2018-04-13T12:41:26.778Z,85
2018-04-13T12:42:27.034Z,95
2018-04-13T12:43:27.029Z,100
2018-04-13T12:44:26.480Z,105
2018-04-13T12:45:27.327Z,110
2018-04-13T12:46:26.981Z,120
2018-04-13T12:47:26.704Z,125
2018-04-13T12:48:26.430Z,130
2018-04-13T12:49:27.212Z,140
2018-04-13T12:50:26.404Z,150
2018-04-13T12:51:26.660Z,160
2018-04-13T12:52:26.378Z,160
2018-04-13T12:53:26.782Z,160
2018-04-13T12:54:27.305Z,160
2018-04-13T12:55:26.982Z,170
2018-04-13T12:56:27.102Z,180
2018-04-13T12:57:27.133Z,190
2018-04-13T12:58:26.589Z,190
2018-04-13T12:59:26.569Z,195
2018-04-13T13:00:26.564Z,195
2018-04-13T13:01:26.807Z,195
2018-04-13T13:02:26.531Z,195
2018-04-13T13:03:26.785Z,190
2018-04-13T13:04:26.510Z,185
2018-04-13T13:05:26.500Z,180
2018-04-13T13:06:27.018Z,165
2018-04-13T13:07:26.472Z,150
2018-04-13T13:08:26.735Z,140
2018-04-13T13:09:26.448Z,130
2018-04-13T13:10:26.755Z,120
2018-04-13T13:11:26.698Z,110
2018-04-13T13:12:26.149Z,105
2018-04-13T13:13:25.873Z,100
2018-04-13T13:14:26.678Z,95
2018-04-13T13:15:26.378Z,90
2018-04-13T13:16:26.121Z,85
2018-04-13T13:17:26.660Z,85
2018-04-13T13:18:26.343Z,80
2018-04-13T13:19:26.605Z,80
2018-04-13T13:20:26.062Z,75
2018-04-13T13:21:26.588Z,80
2018-04-13T13:22:26.300Z,70
2018-04-13T13:23:26.552Z,70
2018-04-13T13:24:26.022Z,70
2018-04-13T13:25:25.999Z,70
2018-04-13T13:26:26.518Z,70
2018-04-13T13:27:26.259Z,65
2018-04-13T13:28:26.232Z,65
2018-04-13T13:29:26.231Z,60
2018-04-13T13:30:26.207Z,55
2018-04-13T13:31:26.460Z,55
2018-04-13T13:32:26.727Z,50
2018-04-13T13:33:25.916Z,50
2018-04-13T13:34:26.167Z,50
2018-04-13T13:35:25.885Z,50
2018-04-13T13:36:26.401Z,50
2018-04-13T13:37:26.448Z,45
2018-04-13T13:38:26.387Z,45
2018-04-13T13:39:26.367Z,45
2018-04-13T13:40:26.098Z,45
2018-04-13T13:41:26.076Z,45
2018-04-13T13:42:26.325Z,50
2018-04-13T13:43:26.340Z,50
2018-04-13T13:44:25.776Z,55
2018-04-13T13:45:26.027Z,55
2018-04-13T13:46:26.020Z,60
2018-04-13T13:47:26.010Z,60
2018-04-13T13:48:25.997Z,65
2018-04-13T13:49:25.716Z,65
2018-04-13T13:50:26.230Z,60
2018-04-13T13:51:26.223Z,60
2018-04-13T13:52:25.946Z,55
2018-04-13T13:53:25.947Z,55
2018-04-13T13:54:25.917Z,55
2018-04-13T13:55:26.169Z,60
2018-04-13T13:56:26.150Z,60
2018-04-13T13:57:26.143Z,60
2018-04-13T13:58:25.865Z,65
2018-04-13T13:59:25.851Z,70
2018-04-13T14:00:26.105Z,75
2018-04-13T14:01:25.558Z,80
2018-04-13T14:02:26.080Z,80
2018-04-13T14:03:26.071Z,85
2018-04-13T14:04:25.792Z,80
2018-04-13T14:05:26.076Z,80
2018-04-13T14:06:25.771Z,85
2018-04-13T14:07:26.038Z,95
2018-04-13T14:08:26.005Z,100
2018-04-13T14:09:26.045Z,100
2018-04-13T14:10:25.195Z,100
2018-04-13T14:11:25.974Z,105